sensor_id;sensor_type;location;lat;lon;timestamp;temperature;humidity
48604;DHT22;32708;51.212;6.788;2023-12-20T00:01:06;8.50;99.90
48604;DHT22;32708;51.212;6.788;2023-12-20T00:03:32;8.40;99.90
48604;DHT22;32708;51.212;6.788;2023-12-20T00:05:58;8.50;99.90
48604;DHT22;32708;51.212;6.788;2023-12-20T00:08:25;8.80;99.90
48604;DHT22;32708;51.212;6.788;2023-12-20T00:10:51;9.00;99.90
48604;DHT22;32708;51.212;6.788;2023-12-20T00:13:17;8.60;99.90
48604;DHT22;32708;51.212;6.788;2023-12-20T00:15:45;8.60;99.90
48604;DHT22;32708;51.212;6.788;2023-12-20T00:18:11;8.90;99.90
48604;DHT22;32708;51.212;6.788;2023-12-20T00:20:38;8.40;99.90
48604;DHT22;32708;51.212;6.788;2023-12-20T00:23:04;8.50;99.90
48604;DHT22;32708;51.212;6.788;2023-12-20T00:25:31;8.40;99.90
48604;DHT22;32708;51.212;6.788;2023-12-20T00:27:57;8.40;99.90
48604;DHT22;32708;51.212;6.788;2023-12-20T00:30:23;8.50;99.90
48604;DHT22;32708;51.212;6.788;2023-12-20T00:32:50;8.40;99.90
48604;DHT22;32708;51.212;6.788;2023-12-20T00:35:16;8.50;99.90
48604;DHT22;32708;51.212;6.788;2023-12-20T00:37:43;8.50;99.90
48604;DHT22;32708;51.212;6.788;2023-12-20T00:40:10;8.50;99.90
48604;DHT22;32708;51.212;6.788;2023-12-20T00:42:36;8.40;99.90
48604;DHT22;32708;51.212;6.788;2023-12-20T00:45:03;8.40;99.90
48604;DHT22;32708;51.212;6.788;2023-12-20T00:47:31;8.30;99.90
48604;DHT22;32708;51.212;6.788;2023-12-20T00:49:58;8.30;99.90
48604;DHT22;32708;51.212;6.788;2023-12-20T00:52:24;8.30;99.90
48604;DHT22;32708;51.212;6.788;2023-12-20T00:54:51;8.20;99.90
48604;DHT22;32708;51.212;6.788;2023-12-20T00:57:18;8.30;99.90
48604;DHT22;32708;51.212;6.788;2023-12-20T00:59:44;8.30;99.90
48604;DHT22;32708;51.212;6.788;2023-12-20T01:02:10;8.30;99.90
48604;DHT22;32708;51.212;6.788;2023-12-20T01:04:36;8.30;99.90
48604;DHT22;32708;51.212;6.788;2023-12-20T01:07:02;8.30;99.90
48604;DHT22;32708;51.212;6.788;2023-12-20T01:09:29;8.30;99.90
48604;DHT22;32708;51.212;6.788;2023-12-20T01:11:55;8.30;99.90
48604;DHT22;32708;51.212;6.788;2023-12-20T01:14:21;8.40;99.90
48604;DHT22;32708;51.212;6.788;2023-12-20T01:16:48;8.40;99.90
48604;DHT22;32708;51.212;6.788;2023-12-20T01:19:14;8.30;99.90
48604;DHT22;32708;51.212;6.788;2023-12-20T01:21:40;8.30;99.90
48604;DHT22;32708;51.212;6.788;2023-12-20T01:24:07;8.30;99.90
48604;DHT22;32708;51.212;6.788;2023-12-20T01:26:33;8.30;99.90
48604;DHT22;32708;51.212;6.788;2023-12-20T01:29:00;8.30;99.90
48604;DHT22;32708;51.212;6.788;2023-12-20T01:31:26;8.20;99.90
48604;DHT22;32708;51.212;6.788;2023-12-20T01:33:53;8.10;99.90
48604;DHT22;32708;51.212;6.788;2023-12-20T01:36:21;8.20;99.90
48604;DHT22;32708;51.212;6.788;2023-12-20T01:38:47;8.40;99.90
48604;DHT22;32708;51.212;6.788;2023-12-20T01:41:13;8.30;99.90
48604;DHT22;32708;51.212;6.788;2023-12-20T01:43:39;8.30;99.90
48604;DHT22;32708;51.212;6.788;2023-12-20T01:46:06;8.10;99.90
48604;DHT22;32708;51.212;6.788;2023-12-20T01:48:32;8.00;99.90
48604;DHT22;32708;51.212;6.788;2023-12-20T01:51:00;8.00;99.90
48604;DHT22;32708;51.212;6.788;2023-12-20T01:53:29;8.00;99.90
48604;DHT22;32708;51.212;6.788;2023-12-20T01:55:58;8.00;99.90
48604;DHT22;32708;51.212;6.788;2023-12-20T01:58:26;7.90;99.90
48604;DHT22;32708;51.212;6.788;2023-12-20T02:00:54;7.90;99.90
48604;DHT22;32708;51.212;6.788;2023-12-20T02:03:21;8.00;99.90
48604;DHT22;32708;51.212;6.788;2023-12-20T02:05:48;7.80;99.90
48604;DHT22;32708;51.212;6.788;2023-12-20T02:08:14;8.10;99.90
48604;DHT22;32708;51.212;6.788;2023-12-20T02:10:41;7.80;99.90
48604;DHT22;32708;51.212;6.788;2023-12-20T02:13:08;7.80;99.90
48604;DHT22;32708;51.212;6.788;2023-12-20T02:15:34;7.80;99.90
48604;DHT22;32708;51.212;6.788;2023-12-20T02:18:03;8.00;99.90
48604;DHT22;32708;51.212;6.788;2023-12-20T02:20:30;7.70;99.90
48604;DHT22;32708;51.212;6.788;2023-12-20T02:22:57;7.60;99.90
48604;DHT22;32708;51.212;6.788;2023-12-20T02:25:23;7.60;99.90
48604;DHT22;32708;51.212;6.788;2023-12-20T02:27:49;7.60;99.90
48604;DHT22;32708;51.212;6.788;2023-12-20T02:30:16;7.50;99.90
48604;DHT22;32708;51.212;6.788;2023-12-20T02:32:43;7.50;99.90
48604;DHT22;32708;51.212;6.788;2023-12-20T02:35:09;7.50;99.90
48604;DHT22;32708;51.212;6.788;2023-12-20T02:37:37;7.50;99.90
48604;DHT22;32708;51.212;6.788;2023-12-20T02:40:05;7.40;99.90
48604;DHT22;32708;51.212;6.788;2023-12-20T02:42:32;7.50;99.90
48604;DHT22;32708;51.212;6.788;2023-12-20T02:44:58;7.50;99.90
48604;DHT22;32708;51.212;6.788;2023-12-20T02:47:24;7.50;99.90
48604;DHT22;32708;51.212;6.788;2023-12-20T02:49:50;7.90;99.90
48604;DHT22;32708;51.212;6.788;2023-12-20T02:52:18;6.80;99.90
48604;DHT22;32708;51.212;6.788;2023-12-20T02:54:45;7.30;99.90
48604;DHT22;32708;51.212;6.788;2023-12-20T02:57:11;7.30;99.90
48604;DHT22;32708;51.212;6.788;2023-12-20T02:59:38;7.40;99.90
48604;DHT22;32708;51.212;6.788;2023-12-20T03:02:04;7.40;99.90
48604;DHT22;32708;51.212;6.788;2023-12-20T03:04:30;7.30;99.90
48604;DHT22;32708;51.212;6.788;2023-12-20T03:06:56;7.30;99.90
48604;DHT22;32708;51.212;6.788;2023-12-20T03:09:22;7.30;99.90
48604;DHT22;32708;51.212;6.788;2023-12-20T03:11:48;7.30;99.90
48604;DHT22;32708;51.212;6.788;2023-12-20T03:14:14;7.30;99.90
48604;DHT22;32708;51.212;6.788;2023-12-20T03:16:41;7.30;99.90
48604;DHT22;32708;51.212;6.788;2023-12-20T03:19:07;8.10;99.90
48604;DHT22;32708;51.212;6.788;2023-12-20T03:21:33;7.20;99.90
48604;DHT22;32708;51.212;6.788;2023-12-20T03:23:59;7.30;99.90
48604;DHT22;32708;51.212;6.788;2023-12-20T03:26:25;7.30;99.90
48604;DHT22;32708;51.212;6.788;2023-12-20T03:28:52;7.30;99.90
48604;DHT22;32708;51.212;6.788;2023-12-20T03:31:18;7.20;99.90
48604;DHT22;32708;51.212;6.788;2023-12-20T03:33:45;7.60;99.90
48604;DHT22;32708;51.212;6.788;2023-12-20T03:36:11;7.20;99.90
48604;DHT22;32708;51.212;6.788;2023-12-20T03:38:37;7.10;99.90
48604;DHT22;32708;51.212;6.788;2023-12-20T03:41:04;7.10;99.90
48604;DHT22;32708;51.212;6.788;2023-12-20T03:43:30;7.10;99.90
48604;DHT22;32708;51.212;6.788;2023-12-20T03:45:56;7.10;99.90
48604;DHT22;32708;51.212;6.788;2023-12-20T03:48:24;7.00;99.90
48604;DHT22;32708;51.212;6.788;2023-12-20T03:50:50;7.30;99.90
48604;DHT22;32708;51.212;6.788;2023-12-20T03:53:16;7.50;99.90
48604;DHT22;32708;51.212;6.788;2023-12-20T03:55:42;7.70;99.90
48604;DHT22;32708;51.212;6.788;2023-12-20T03:58:10;7.30;99.90
48604;DHT22;32708;51.212;6.788;2023-12-20T04:00:36;7.20;99.90
48604;DHT22;32708;51.212;6.788;2023-12-20T04:03:02;6.90;99.90
48604;DHT22;32708;51.212;6.788;2023-12-20T04:05:28;6.80;99.90
48604;DHT22;32708;51.212;6.788;2023-12-20T04:07:54;6.90;99.90
48604;DHT22;32708;51.212;6.788;2023-12-20T04:10:20;6.90;99.90
48604;DHT22;32708;51.212;6.788;2023-12-20T04:12:47;6.80;99.90
48604;DHT22;32708;51.212;6.788;2023-12-20T04:15:13;7.20;99.90
48604;DHT22;32708;51.212;6.788;2023-12-20T04:17:39;6.90;99.90
48604;DHT22;32708;51.212;6.788;2023-12-20T04:20:06;6.90;99.90
48604;DHT22;32708;51.212;6.788;2023-12-20T04:22:33;6.80;99.90
48604;DHT22;32708;51.212;6.788;2023-12-20T04:24:59;6.80;99.90
48604;DHT22;32708;51.212;6.788;2023-12-20T04:27:25;7.30;99.90
48604;DHT22;32708;51.212;6.788;2023-12-20T04:29:51;7.00;99.90
48604;DHT22;32708;51.212;6.788;2023-12-20T04:32:17;6.70;99.90
48604;DHT22;32708;51.212;6.788;2023-12-20T04:34:43;6.80;99.90
48604;DHT22;32708;51.212;6.788;2023-12-20T04:37:09;6.70;99.90
48604;DHT22;32708;51.212;6.788;2023-12-20T04:39:36;6.80;99.90
48604;DHT22;32708;51.212;6.788;2023-12-20T04:42:02;6.80;99.90
48604;DHT22;32708;51.212;6.788;2023-12-20T04:44:29;6.80;99.90
48604;DHT22;32708;51.212;6.788;2023-12-20T04:46:55;6.80;99.90
48604;DHT22;32708;51.212;6.788;2023-12-20T04:49:22;6.80;99.90
48604;DHT22;32708;51.212;6.788;2023-12-20T04:51:48;6.90;99.90
48604;DHT22;32708;51.212;6.788;2023-12-20T04:54:15;6.80;99.90
48604;DHT22;32708;51.212;6.788;2023-12-20T04:56:41;6.80;99.90
48604;DHT22;32708;51.212;6.788;2023-12-20T04:59:08;6.80;99.90
48604;DHT22;32708;51.212;6.788;2023-12-20T05:01:34;6.70;99.90
48604;DHT22;32708;51.212;6.788;2023-12-20T05:04:00;6.80;99.90
48604;DHT22;32708;51.212;6.788;2023-12-20T05:06:26;6.90;99.90
48604;DHT22;32708;51.212;6.788;2023-12-20T05:08:52;6.70;99.90
48604;DHT22;32708;51.212;6.788;2023-12-20T05:11:18;6.70;99.90
48604;DHT22;32708;51.212;6.788;2023-12-20T05:13:45;6.70;99.90
48604;DHT22;32708;51.212;6.788;2023-12-20T05:16:11;6.70;99.90
48604;DHT22;32708;51.212;6.788;2023-12-20T05:18:40;7.10;99.90
48604;DHT22;32708;51.212;6.788;2023-12-20T05:21:09;6.80;99.90
48604;DHT22;32708;51.212;6.788;2023-12-20T05:23:35;6.70;99.90
48604;DHT22;32708;51.212;6.788;2023-12-20T05:26:01;6.70;99.90
48604;DHT22;32708;51.212;6.788;2023-12-20T05:28:28;6.70;99.90
48604;DHT22;32708;51.212;6.788;2023-12-20T05:30:59;7.00;99.90
48604;DHT22;32708;51.212;6.788;2023-12-20T05:33:29;6.80;99.90
48604;DHT22;32708;51.212;6.788;2023-12-20T05:35:55;6.80;99.90
48604;DHT22;32708;51.212;6.788;2023-12-20T05:38:21;6.90;99.90
48604;DHT22;32708;51.212;6.788;2023-12-20T05:40:48;6.70;99.90
48604;DHT22;32708;51.212;6.788;2023-12-20T05:43:14;6.80;99.90
48604;DHT22;32708;51.212;6.788;2023-12-20T05:45:40;6.90;99.90
48604;DHT22;32708;51.212;6.788;2023-12-20T05:48:08;6.70;99.90
48604;DHT22;32708;51.212;6.788;2023-12-20T05:50:37;6.80;99.90
48604;DHT22;32708;51.212;6.788;2023-12-20T05:53:03;6.80;99.90
48604;DHT22;32708;51.212;6.788;2023-12-20T05:55:29;6.80;99.90
48604;DHT22;32708;51.212;6.788;2023-12-20T05:57:55;6.90;99.90
48604;DHT22;32708;51.212;6.788;2023-12-20T06:00:22;6.90;99.90
48604;DHT22;32708;51.212;6.788;2023-12-20T06:02:48;6.90;99.90
48604;DHT22;32708;51.212;6.788;2023-12-20T06:05:14;7.00;99.90
48604;DHT22;32708;51.212;6.788;2023-12-20T06:07:53;7.00;99.90
48604;DHT22;32708;51.212;6.788;2023-12-20T06:10:23;6.90;99.90
48604;DHT22;32708;51.212;6.788;2023-12-20T06:12:49;7.00;99.90
48604;DHT22;32708;51.212;6.788;2023-12-20T06:15:17;7.00;99.90
48604;DHT22;32708;51.212;6.788;2023-12-20T06:17:43;7.00;99.90
48604;DHT22;32708;51.212;6.788;2023-12-20T06:20:10;7.00;99.90
48604;DHT22;32708;51.212;6.788;2023-12-20T06:22:36;7.00;99.90
48604;DHT22;32708;51.212;6.788;2023-12-20T06:25:02;7.00;99.90
48604;DHT22;32708;51.212;6.788;2023-12-20T06:27:29;7.00;99.90
48604;DHT22;32708;51.212;6.788;2023-12-20T06:29:56;6.90;99.90
48604;DHT22;32708;51.212;6.788;2023-12-20T06:32:22;7.00;99.90
48604;DHT22;32708;51.212;6.788;2023-12-20T06:34:49;7.00;99.90
48604;DHT22;32708;51.212;6.788;2023-12-20T06:37:15;7.00;99.90
48604;DHT22;32708;51.212;6.788;2023-12-20T06:39:42;7.00;99.90
48604;DHT22;32708;51.212;6.788;2023-12-20T06:42:08;7.00;99.90
48604;DHT22;32708;51.212;6.788;2023-12-20T06:44:34;7.00;99.90
48604;DHT22;32708;51.212;6.788;2023-12-20T06:47:00;7.00;99.90
48604;DHT22;32708;51.212;6.788;2023-12-20T06:49:27;7.10;99.90
48604;DHT22;32708;51.212;6.788;2023-12-20T06:51:53;7.10;99.90
48604;DHT22;32708;51.212;6.788;2023-12-20T06:54:19;7.10;99.90
48604;DHT22;32708;51.212;6.788;2023-12-20T06:56:45;7.10;99.90
48604;DHT22;32708;51.212;6.788;2023-12-20T06:59:12;7.10;99.90
48604;DHT22;32708;51.212;6.788;2023-12-20T07:01:38;7.10;99.90
48604;DHT22;32708;51.212;6.788;2023-12-20T07:04:04;7.50;99.90
48604;DHT22;32708;51.212;6.788;2023-12-20T07:06:30;7.30;99.90
48604;DHT22;32708;51.212;6.788;2023-12-20T07:08:56;7.10;99.90
48604;DHT22;32708;51.212;6.788;2023-12-20T07:11:22;7.20;99.90
48604;DHT22;32708;51.212;6.788;2023-12-20T07:13:48;7.10;99.90
48604;DHT22;32708;51.212;6.788;2023-12-20T07:16:15;7.10;99.90
48604;DHT22;32708;51.212;6.788;2023-12-20T07:18:41;7.20;99.90
48604;DHT22;32708;51.212;6.788;2023-12-20T07:21:07;7.20;99.90
48604;DHT22;32708;51.212;6.788;2023-12-20T07:23:34;7.20;99.90
48604;DHT22;32708;51.212;6.788;2023-12-20T07:26:00;7.20;99.90
48604;DHT22;32708;51.212;6.788;2023-12-20T07:28:28;7.20;99.90
48604;DHT22;32708;51.212;6.788;2023-12-20T07:30:54;7.30;99.90
48604;DHT22;32708;51.212;6.788;2023-12-20T07:33:20;7.20;99.90
48604;DHT22;32708;51.212;6.788;2023-12-20T07:35:46;7.20;99.90
48604;DHT22;32708;51.212;6.788;2023-12-20T07:38:13;7.30;99.90
48604;DHT22;32708;51.212;6.788;2023-12-20T07:40:39;7.30;99.90
48604;DHT22;32708;51.212;6.788;2023-12-20T07:43:05;7.30;99.90
48604;DHT22;32708;51.212;6.788;2023-12-20T07:45:31;7.30;99.90
48604;DHT22;32708;51.212;6.788;2023-12-20T07:47:57;7.40;99.90
48604;DHT22;32708;51.212;6.788;2023-12-20T07:50:23;7.60;99.90
48604;DHT22;32708;51.212;6.788;2023-12-20T07:52:49;7.30;99.90
48604;DHT22;32708;51.212;6.788;2023-12-20T07:55:15;7.60;99.90
48604;DHT22;32708;51.212;6.788;2023-12-20T07:57:41;7.30;99.90
48604;DHT22;32708;51.212;6.788;2023-12-20T08:00:08;7.40;99.90
48604;DHT22;32708;51.212;6.788;2023-12-20T08:02:35;7.40;99.90
48604;DHT22;32708;51.212;6.788;2023-12-20T08:05:01;7.40;99.90
48604;DHT22;32708;51.212;6.788;2023-12-20T08:07:27;7.30;99.90
48604;DHT22;32708;51.212;6.788;2023-12-20T08:09:53;7.30;99.90
48604;DHT22;32708;51.212;6.788;2023-12-20T08:12:22;7.30;99.90
48604;DHT22;32708;51.212;6.788;2023-12-20T08:14:48;7.30;99.90
48604;DHT22;32708;51.212;6.788;2023-12-20T08:17:14;7.40;99.90
48604;DHT22;32708;51.212;6.788;2023-12-20T08:19:45;7.40;99.90
48604;DHT22;32708;51.212;6.788;2023-12-20T08:22:15;7.40;99.90
48604;DHT22;32708;51.212;6.788;2023-12-20T08:24:42;7.40;99.90
48604;DHT22;32708;51.212;6.788;2023-12-20T08:27:08;7.60;99.90
48604;DHT22;32708;51.212;6.788;2023-12-20T08:29:35;7.40;99.90
48604;DHT22;32708;51.212;6.788;2023-12-20T08:32:02;7.40;99.90
48604;DHT22;32708;51.212;6.788;2023-12-20T08:34:28;7.40;99.90
48604;DHT22;32708;51.212;6.788;2023-12-20T08:36:54;7.40;99.90
48604;DHT22;32708;51.212;6.788;2023-12-20T08:39:20;7.40;99.90
48604;DHT22;32708;51.212;6.788;2023-12-20T08:41:47;7.40;99.90
48604;DHT22;32708;51.212;6.788;2023-12-20T08:44:13;7.40;99.90
48604;DHT22;32708;51.212;6.788;2023-12-20T08:46:39;7.40;99.90
48604;DHT22;32708;51.212;6.788;2023-12-20T08:49:05;7.40;99.90
48604;DHT22;32708;51.212;6.788;2023-12-20T08:51:31;7.40;99.90
48604;DHT22;32708;51.212;6.788;2023-12-20T08:53:59;7.40;99.90
48604;DHT22;32708;51.212;6.788;2023-12-20T08:56:28;7.40;99.90
48604;DHT22;32708;51.212;6.788;2023-12-20T08:59:16;7.30;99.90
48604;DHT22;32708;51.212;6.788;2023-12-20T09:01:44;7.40;99.90
48604;DHT22;32708;51.212;6.788;2023-12-20T09:04:10;7.30;99.90
48604;DHT22;32708;51.212;6.788;2023-12-20T09:06:36;7.30;99.90
48604;DHT22;32708;51.212;6.788;2023-12-20T09:09:03;7.40;99.90
48604;DHT22;32708;51.212;6.788;2023-12-20T09:11:29;7.30;99.90
48604;DHT22;32708;51.212;6.788;2023-12-20T09:13:55;7.30;99.90
48604;DHT22;32708;51.212;6.788;2023-12-20T09:16:22;7.30;99.90
48604;DHT22;32708;51.212;6.788;2023-12-20T09:18:48;7.40;99.90
48604;DHT22;32708;51.212;6.788;2023-12-20T09:21:14;7.30;99.90
48604;DHT22;32708;51.212;6.788;2023-12-20T09:23:40;7.30;99.90
48604;DHT22;32708;51.212;6.788;2023-12-20T09:26:07;7.30;99.90
48604;DHT22;32708;51.212;6.788;2023-12-20T09:28:33;7.40;99.90
48604;DHT22;32708;51.212;6.788;2023-12-20T09:31:04;7.40;99.90
48604;DHT22;32708;51.212;6.788;2023-12-20T09:33:30;7.40;99.90
48604;DHT22;32708;51.212;6.788;2023-12-20T09:35:57;7.40;99.90
48604;DHT22;32708;51.212;6.788;2023-12-20T09:38:24;7.50;99.90
48604;DHT22;32708;51.212;6.788;2023-12-20T09:40:50;7.50;99.90
48604;DHT22;32708;51.212;6.788;2023-12-20T09:43:20;7.50;99.90
48604;DHT22;32708;51.212;6.788;2023-12-20T09:45:53;7.50;99.90
48604;DHT22;32708;51.212;6.788;2023-12-20T09:48:20;7.40;99.90
48604;DHT22;32708;51.212;6.788;2023-12-20T09:50:47;7.40;99.90
48604;DHT22;32708;51.212;6.788;2023-12-20T09:53:18;7.50;99.90
48604;DHT22;32708;51.212;6.788;2023-12-20T09:55:45;7.60;99.90
48604;DHT22;32708;51.212;6.788;2023-12-20T09:58:12;7.60;99.90
48604;DHT22;32708;51.212;6.788;2023-12-20T10:00:38;7.60;99.90
48604;DHT22;32708;51.212;6.788;2023-12-20T10:03:06;7.60;99.90
48604;DHT22;32708;51.212;6.788;2023-12-20T10:05:34;7.60;99.90
48604;DHT22;32708;51.212;6.788;2023-12-20T10:08:01;7.60;99.90
48604;DHT22;32708;51.212;6.788;2023-12-20T10:10:28;7.50;99.90
48604;DHT22;32708;51.212;6.788;2023-12-20T10:13:10;7.50;99.90
48604;DHT22;32708;51.212;6.788;2023-12-20T10:15:38;7.60;99.90
48604;DHT22;32708;51.212;6.788;2023-12-20T10:18:04;7.60;99.90
48604;DHT22;32708;51.212;6.788;2023-12-20T10:20:31;7.60;99.90
48604;DHT22;32708;51.212;6.788;2023-12-20T10:22:59;7.60;99.90
48604;DHT22;32708;51.212;6.788;2023-12-20T10:25:26;7.60;99.90
48604;DHT22;32708;51.212;6.788;2023-12-20T10:28:15;7.70;99.90
48604;DHT22;32708;51.212;6.788;2023-12-20T10:30:46;7.70;99.90
48604;DHT22;32708;51.212;6.788;2023-12-20T10:33:13;7.60;99.90
48604;DHT22;32708;51.212;6.788;2023-12-20T10:35:40;7.60;99.90
48604;DHT22;32708;51.212;6.788;2023-12-20T10:38:07;7.60;99.90
48604;DHT22;32708;51.212;6.788;2023-12-20T10:40:35;7.60;99.90
48604;DHT22;32708;51.212;6.788;2023-12-20T10:43:04;7.70;99.90
48604;DHT22;32708;51.212;6.788;2023-12-20T10:45:31;7.60;99.90
48604;DHT22;32708;51.212;6.788;2023-12-20T10:47:58;7.60;99.90
48604;DHT22;32708;51.212;6.788;2023-12-20T10:50:27;7.70;99.90
48604;DHT22;32708;51.212;6.788;2023-12-20T10:52:57;7.70;99.90
48604;DHT22;32708;51.212;6.788;2023-12-20T10:55:25;7.70;99.90
48604;DHT22;32708;51.212;6.788;2023-12-20T10:57:52;7.70;99.90
48604;DHT22;32708;51.212;6.788;2023-12-20T11:00:26;7.80;99.90
48604;DHT22;32708;51.212;6.788;2023-12-20T11:03:01;7.80;99.90
48604;DHT22;32708;51.212;6.788;2023-12-20T11:06:00;7.70;99.90
48604;DHT22;32708;51.212;6.788;2023-12-20T11:14:48;7.80;99.90
48604;DHT22;32708;51.212;6.788;2023-12-20T11:17:18;7.80;99.90
48604;DHT22;32708;51.212;6.788;2023-12-20T11:22:31;7.80;99.90
48604;DHT22;32708;51.212;6.788;2023-12-20T11:25:02;7.80;99.90
48604;DHT22;32708;51.212;6.788;2023-12-20T11:27:31;7.80;99.90
48604;DHT22;32708;51.212;6.788;2023-12-20T11:29:58;7.80;99.90
48604;DHT22;32708;51.212;6.788;2023-12-20T11:35:00;7.70;99.90
48604;DHT22;32708;51.212;6.788;2023-12-20T11:37:46;7.70;99.90
48604;DHT22;32708;51.212;6.788;2023-12-20T11:40:18;7.80;99.90
48604;DHT22;32708;51.212;6.788;2023-12-20T11:42:49;7.80;99.90
48604;DHT22;32708;51.212;6.788;2023-12-20T11:45:21;7.80;99.90
48604;DHT22;32708;51.212;6.788;2023-12-20T11:47:51;7.80;99.90
48604;DHT22;32708;51.212;6.788;2023-12-20T11:50:21;7.80;99.90
48604;DHT22;32708;51.212;6.788;2023-12-20T11:52:51;7.70;99.90
48604;DHT22;32708;51.212;6.788;2023-12-20T11:55:19;7.70;99.90
48604;DHT22;32708;51.212;6.788;2023-12-20T11:57:45;7.80;99.90
48604;DHT22;32708;51.212;6.788;2023-12-20T12:00:13;7.80;99.90
48604;DHT22;32708;51.212;6.788;2023-12-20T12:02:40;7.90;99.90
48604;DHT22;32708;51.212;6.788;2023-12-20T12:05:07;7.90;99.90
48604;DHT22;32708;51.212;6.788;2023-12-20T12:07:34;8.00;99.90
48604;DHT22;32708;51.212;6.788;2023-12-20T12:10:01;7.90;99.90
48604;DHT22;32708;51.212;6.788;2023-12-20T12:12:29;7.90;99.90
48604;DHT22;32708;51.212;6.788;2023-12-20T12:14:56;7.90;99.90
48604;DHT22;32708;51.212;6.788;2023-12-20T12:17:23;8.00;99.90
48604;DHT22;32708;51.212;6.788;2023-12-20T12:19:49;7.90;99.90
48604;DHT22;32708;51.212;6.788;2023-12-20T12:22:16;8.00;99.90
48604;DHT22;32708;51.212;6.788;2023-12-20T12:24:43;8.10;99.90
48604;DHT22;32708;51.212;6.788;2023-12-20T12:27:12;8.00;99.90
48604;DHT22;32708;51.212;6.788;2023-12-20T12:30:03;7.90;99.90
48604;DHT22;32708;51.212;6.788;2023-12-20T12:32:31;7.90;99.90
48604;DHT22;32708;51.212;6.788;2023-12-20T12:34:58;7.80;99.90
48604;DHT22;32708;51.212;6.788;2023-12-20T12:37:25;7.80;99.90
48604;DHT22;32708;51.212;6.788;2023-12-20T12:39:55;7.80;99.90
48604;DHT22;32708;51.212;6.788;2023-12-20T12:42:22;7.90;99.90
48604;DHT22;32708;51.212;6.788;2023-12-20T12:44:54;7.90;99.90
48604;DHT22;32708;51.212;6.788;2023-12-20T12:47:22;7.80;99.90
48604;DHT22;32708;51.212;6.788;2023-12-20T12:49:51;7.80;99.90
48604;DHT22;32708;51.212;6.788;2023-12-20T12:52:20;7.80;99.90
48604;DHT22;32708;51.212;6.788;2023-12-20T12:54:46;7.80;99.90
48604;DHT22;32708;51.212;6.788;2023-12-20T12:57:14;7.90;99.90
48604;DHT22;32708;51.212;6.788;2023-12-20T12:59:42;7.90;99.90
48604;DHT22;32708;51.212;6.788;2023-12-20T13:02:09;7.90;99.90
48604;DHT22;32708;51.212;6.788;2023-12-20T13:04:36;7.90;99.90
48604;DHT22;32708;51.212;6.788;2023-12-20T13:07:02;7.80;99.90
48604;DHT22;32708;51.212;6.788;2023-12-20T13:09:29;7.80;99.90
48604;DHT22;32708;51.212;6.788;2023-12-20T13:11:55;7.70;99.90
48604;DHT22;32708;51.212;6.788;2023-12-20T13:14:22;7.70;99.90
48604;DHT22;32708;51.212;6.788;2023-12-20T13:16:48;7.70;99.90
48604;DHT22;32708;51.212;6.788;2023-12-20T13:19:14;7.60;99.90
48604;DHT22;32708;51.212;6.788;2023-12-20T13:21:40;8.00;99.90
48604;DHT22;32708;51.212;6.788;2023-12-20T13:24:07;7.60;99.90
48604;DHT22;32708;51.212;6.788;2023-12-20T13:26:35;7.70;99.90
48604;DHT22;32708;51.212;6.788;2023-12-20T13:29:02;7.70;99.90
48604;DHT22;32708;51.212;6.788;2023-12-20T13:31:28;7.70;99.90
48604;DHT22;32708;51.212;6.788;2023-12-20T13:33:54;7.80;99.90
48604;DHT22;32708;51.212;6.788;2023-12-20T13:36:21;7.80;99.90
48604;DHT22;32708;51.212;6.788;2023-12-20T13:38:47;7.80;99.90
48604;DHT22;32708;51.212;6.788;2023-12-20T13:41:13;8.10;99.90
48604;DHT22;32708;51.212;6.788;2023-12-20T13:43:40;8.00;99.90
48604;DHT22;32708;51.212;6.788;2023-12-20T13:46:08;7.80;99.90
48604;DHT22;32708;51.212;6.788;2023-12-20T13:48:35;7.70;99.90
48604;DHT22;32708;51.212;6.788;2023-12-20T13:51:01;7.70;99.90
48604;DHT22;32708;51.212;6.788;2023-12-20T13:53:28;7.70;99.90
48604;DHT22;32708;51.212;6.788;2023-12-20T13:55:54;7.70;99.90
48604;DHT22;32708;51.212;6.788;2023-12-20T13:58:21;7.70;99.90
48604;DHT22;32708;51.212;6.788;2023-12-20T14:00:48;7.80;99.90
48604;DHT22;32708;51.212;6.788;2023-12-20T14:03:14;7.80;99.90
48604;DHT22;32708;51.212;6.788;2023-12-20T14:05:41;7.80;99.90
48604;DHT22;32708;51.212;6.788;2023-12-20T14:08:07;7.80;99.90
48604;DHT22;32708;51.212;6.788;2023-12-20T14:10:33;7.80;99.90
48604;DHT22;32708;51.212;6.788;2023-12-20T14:13:00;7.90;99.90
48604;DHT22;32708;51.212;6.788;2023-12-20T14:15:26;7.90;99.90
48604;DHT22;32708;51.212;6.788;2023-12-20T14:17:53;7.90;99.90
48604;DHT22;32708;51.212;6.788;2023-12-20T14:20:21;7.90;99.90
48604;DHT22;32708;51.212;6.788;2023-12-20T14:22:47;8.00;99.90
48604;DHT22;32708;51.212;6.788;2023-12-20T14:25:14;8.00;99.90
48604;DHT22;32708;51.212;6.788;2023-12-20T14:27:42;8.00;99.90
48604;DHT22;32708;51.212;6.788;2023-12-20T14:30:09;8.00;99.90
48604;DHT22;32708;51.212;6.788;2023-12-20T14:32:36;8.00;99.90
48604;DHT22;32708;51.212;6.788;2023-12-20T14:35:06;8.00;99.90
48604;DHT22;32708;51.212;6.788;2023-12-20T14:37:35;8.00;99.90
48604;DHT22;32708;51.212;6.788;2023-12-20T14:40:08;8.00;99.90
48604;DHT22;32708;51.212;6.788;2023-12-20T14:42:44;8.00;99.90
48604;DHT22;32708;51.212;6.788;2023-12-20T14:45:13;8.10;99.90
48604;DHT22;32708;51.212;6.788;2023-12-20T14:47:40;8.10;99.90
48604;DHT22;32708;51.212;6.788;2023-12-20T14:50:08;8.10;99.90
48604;DHT22;32708;51.212;6.788;2023-12-20T14:52:52;8.10;99.90
48604;DHT22;32708;51.212;6.788;2023-12-20T14:55:22;8.10;99.90
48604;DHT22;32708;51.212;6.788;2023-12-20T14:57:51;8.20;99.90
48604;DHT22;32708;51.212;6.788;2023-12-20T15:00:17;8.10;99.90
48604;DHT22;32708;51.212;6.788;2023-12-20T15:02:45;8.20;99.90
48604;DHT22;32708;51.212;6.788;2023-12-20T15:05:12;8.20;99.90
48604;DHT22;32708;51.212;6.788;2023-12-20T15:07:42;8.20;99.90
48604;DHT22;32708;51.212;6.788;2023-12-20T15:10:09;8.10;99.90
48604;DHT22;32708;51.212;6.788;2023-12-20T15:12:36;8.10;99.90
48604;DHT22;32708;51.212;6.788;2023-12-20T15:15:02;8.20;99.90
48604;DHT22;32708;51.212;6.788;2023-12-20T15:17:30;8.20;99.90
48604;DHT22;32708;51.212;6.788;2023-12-20T15:19:56;8.30;99.90
48604;DHT22;32708;51.212;6.788;2023-12-20T15:22:22;8.20;99.90
48604;DHT22;32708;51.212;6.788;2023-12-20T15:24:49;8.30;99.90
48604;DHT22;32708;51.212;6.788;2023-12-20T15:27:17;8.30;99.90
48604;DHT22;32708;51.212;6.788;2023-12-20T15:29:44;8.30;99.90
48604;DHT22;32708;51.212;6.788;2023-12-20T15:32:10;8.30;99.90
48604;DHT22;32708;51.212;6.788;2023-12-20T15:34:36;8.30;99.90
48604;DHT22;32708;51.212;6.788;2023-12-20T15:37:03;8.80;99.90
48604;DHT22;32708;51.212;6.788;2023-12-20T15:39:29;8.30;99.90
48604;DHT22;32708;51.212;6.788;2023-12-20T15:41:55;8.30;99.90
48604;DHT22;32708;51.212;6.788;2023-12-20T15:44:21;8.30;99.90
48604;DHT22;32708;51.212;6.788;2023-12-20T15:46:48;8.30;99.90
48604;DHT22;32708;51.212;6.788;2023-12-20T15:49:14;8.30;99.90
48604;DHT22;32708;51.212;6.788;2023-12-20T15:51:43;8.30;99.90
48604;DHT22;32708;51.212;6.788;2023-12-20T15:54:10;8.40;99.90
48604;DHT22;32708;51.212;6.788;2023-12-20T15:56:39;8.30;99.90